Main page
METAR-TAF:

METAR-TAF

Airports :

Josefa Camejo International Airport

Paraguaná, Venezuela

latitude: 11-47N, longitude: 070-09W, elevation: 23 m

METAR: missing

Time: 13:49 (17:49 UTC)

Forecast

The report was made 1 hour and 49 minutes ago, at 16:00 UTC
Forecast valid from 22 at 18 UTC to 23 at 18 UTC
Wind 12 kt from the East
Visibility 10 km or more
Few clouds at a height of 1300 ft
Temporary
from 22 at 18 UTC to 22 at 22 UTC
Wind 14 kt from the East
Visibility: 9000 m
Broken clouds at a height of 1300 ft
in the vicinity, drizzle
From 22 at 2300 UTC
Wind 8 kt from the East/Northeast
Visibility 10 km or more
Scattered clouds at a height of 1300 ft

TAF: SVJC 221600Z 2218/2318 08012KT 9999 FEW013 TX31/2318Z TN22/2308Z TEMPO 2218/2222 09014KT 9000 VCDZ BKN013 FM222300 07008KT 9999 SCT013

Weather observations and forecasts of more than 4000 airports (METAR and TAF reports).

The available stations are represented by yellow and red dots on the map.

Hover mouse over dot to see the name of the station.

Then click to see weather observations and forecasts.

To change the map : click on the green buttons with a black cross to zoom in, on the green button with a dash to zoom out, or on the green arrows for adjacent maps.


METAR-TAF: